sensor_id;sensor_type;location;lat;lon;timestamp;P1;durP1;ratioP1;P2;durP2;ratioP2
26824;SDS011;14402;48.178;11.566;2023-04-25T00:00:17;2.7;;;1.3;;
26824;SDS011;14402;48.178;11.566;2023-04-25T00:00:47;3.3;;;1.4;;
26824;SDS011;14402;48.178;11.566;2023-04-25T00:01:17;4.0;;;1.5;;
26824;SDS011;14402;48.178;11.566;2023-04-25T00:01:47;4.0;;;1.5;;
26824;SDS011;14402;48.178;11.566;2023-04-25T00:02:17;4.0;;;1.5;;
26824;SDS011;14402;48.178;11.566;2023-04-25T00:02:47;3.1;;;1.5;;
26824;SDS011;14402;48.178;11.566;2023-04-25T00:03:17;2.2;;;1.4;;
26824;SDS011;14402;48.178;11.566;2023-04-25T00:03:47;2.2;;;1.4;;
26824;SDS011;14402;48.178;11.566;2023-04-25T00:04:17;2.2;;;1.4;;
26824;SDS011;14402;48.178;11.566;2023-04-25T00:04:48;2.6;;;1.3;;
26824;SDS011;14402;48.178;11.566;2023-04-25T00:05:18;2.9;;;1.2;;
26824;SDS011;14402;48.178;11.566;2023-04-25T00:05:48;2.9;;;1.2;;
26824;SDS011;14402;48.178;11.566;2023-04-25T00:06:18;2.9;;;1.2;;
26824;SDS011;14402;48.178;11.566;2023-04-25T00:06:48;2.6;;;1.2;;
26824;SDS011;14402;48.178;11.566;2023-04-25T00:07:18;2.2;;;1.2;;
26824;SDS011;14402;48.178;11.566;2023-04-25T00:07:48;2.2;;;1.2;;
26824;SDS011;14402;48.178;11.566;2023-04-25T00:08:18;2.2;;;1.2;;
26824;SDS011;14402;48.178;11.566;2023-04-25T00:08:48;2.2;;;1.3;;
26824;SDS011;14402;48.178;11.566;2023-04-25T00:09:18;2.2;;;1.4;;
26824;SDS011;14402;48.178;11.566;2023-04-25T00:09:48;2.2;;;1.4;;
26824;SDS011;14402;48.178;11.566;2023-04-25T00:10:18;2.2;;;1.4;;
26824;SDS011;14402;48.178;11.566;2023-04-25T00:10:48;2.0;;;1.3;;
26824;SDS011;14402;48.178;11.566;2023-04-25T00:11:18;1.8;;;1.3;;
26824;SDS011;14402;48.178;11.566;2023-04-25T00:11:48;1.8;;;1.3;;
26824;SDS011;14402;48.178;11.566;2023-04-25T00:12:18;1.8;;;1.3;;
26824;SDS011;14402;48.178;11.566;2023-04-25T00:12:48;1.5;;;1.1;;
26824;SDS011;14402;48.178;11.566;2023-04-25T00:13:18;1.1;;;1.0;;
26824;SDS011;14402;48.178;11.566;2023-04-25T00:13:49;1.1;;;1.0;;
26824;SDS011;14402;48.178;11.566;2023-04-25T00:14:19;1.1;;;1.0;;
26824;SDS011;14402;48.178;11.566;2023-04-25T00:14:49;1.4;;;1.1;;
26824;SDS011;14402;48.178;11.566;2023-04-25T00:15:19;1.6;;;1.2;;
26824;SDS011;14402;48.178;11.566;2023-04-25T00:15:49;1.6;;;1.2;;
26824;SDS011;14402;48.178;11.566;2023-04-25T00:16:19;1.6;;;1.2;;
26824;SDS011;14402;48.178;11.566;2023-04-25T00:16:49;1.5;;;1.2;;
26824;SDS011;14402;48.178;11.566;2023-04-25T00:17:20;1.5;;;1.1;;
26824;SDS011;14402;48.178;11.566;2023-04-25T00:17:49;1.5;;;1.1;;
26824;SDS011;14402;48.178;11.566;2023-04-25T00:18:19;1.5;;;1.1;;
26824;SDS011;14402;48.178;11.566;2023-04-25T00:18:49;2.0;;;1.2;;
26824;SDS011;14402;48.178;11.566;2023-04-25T00:19:19;2.6;;;1.2;;
26824;SDS011;14402;48.178;11.566;2023-04-25T00:19:49;2.6;;;1.2;;
26824;SDS011;14402;48.178;11.566;2023-04-25T00:20:19;2.6;;;1.2;;
26824;SDS011;14402;48.178;11.566;2023-04-25T00:20:49;3.7;;;1.3;;
26824;SDS011;14402;48.178;11.566;2023-04-25T00:21:20;4.8;;;1.4;;
26824;SDS011;14402;48.178;11.566;2023-04-25T00:21:49;4.8;;;1.4;;
26824;SDS011;14402;48.178;11.566;2023-04-25T00:22:20;4.8;;;1.4;;
26824;SDS011;14402;48.178;11.566;2023-04-25T00:22:50;3.9;;;1.3;;
26824;SDS011;14402;48.178;11.566;2023-04-25T00:23:19;3.0;;;1.3;;
26824;SDS011;14402;48.178;11.566;2023-04-25T00:23:50;3.0;;;1.3;;
26824;SDS011;14402;48.178;11.566;2023-04-25T00:24:20;3.0;;;1.3;;
26824;SDS011;14402;48.178;11.566;2023-04-25T00:24:50;3.1;;;1.2;;
26824;SDS011;14402;48.178;11.566;2023-04-25T00:25:20;3.2;;;1.2;;
26824;SDS011;14402;48.178;11.566;2023-04-25T00:25:50;3.2;;;1.2;;
26824;SDS011;14402;48.178;11.566;2023-04-25T00:26:20;3.2;;;1.2;;
26824;SDS011;14402;48.178;11.566;2023-04-25T00:26:50;2.8;;;1.3;;
26824;SDS011;14402;48.178;11.566;2023-04-25T00:27:20;2.5;;;1.4;;
26824;SDS011;14402;48.178;11.566;2023-04-25T00:27:50;2.5;;;1.4;;
26824;SDS011;14402;48.178;11.566;2023-04-25T00:28:20;2.5;;;1.4;;
26824;SDS011;14402;48.178;11.566;2023-04-25T00:28:50;2.1;;;1.2;;
26824;SDS011;14402;48.178;11.566;2023-04-25T00:29:20;1.7;;;1.1;;
26824;SDS011;14402;48.178;11.566;2023-04-25T00:29:50;1.7;;;1.1;;
26824;SDS011;14402;48.178;11.566;2023-04-25T00:30:20;1.7;;;1.1;;
26824;SDS011;14402;48.178;11.566;2023-04-25T00:30:50;1.5;;;1.2;;
26824;SDS011;14402;48.178;11.566;2023-04-25T00:31:21;1.4;;;1.3;;
26824;SDS011;14402;48.178;11.566;2023-04-25T00:31:51;1.4;;;1.3;;
26824;SDS011;14402;48.178;11.566;2023-04-25T00:32:21;1.4;;;1.3;;
26824;SDS011;14402;48.178;11.566;2023-04-25T00:32:51;1.5;;;1.2;;
26824;SDS011;14402;48.178;11.566;2023-04-25T00:33:21;1.6;;;1.1;;
26824;SDS011;14402;48.178;11.566;2023-04-25T00:33:51;1.6;;;1.1;;
26824;SDS011;14402;48.178;11.566;2023-04-25T00:34:21;1.6;;;1.1;;
26824;SDS011;14402;48.178;11.566;2023-04-25T00:34:51;1.4;;;1.0;;
26824;SDS011;14402;48.178;11.566;2023-04-25T00:35:21;1.2;;;1.0;;
26824;SDS011;14402;48.178;11.566;2023-04-25T00:35:51;1.2;;;1.0;;
26824;SDS011;14402;48.178;11.566;2023-04-25T00:36:21;1.2;;;1.0;;
26824;SDS011;14402;48.178;11.566;2023-04-25T00:36:51;1.6;;;1.1;;
26824;SDS011;14402;48.178;11.566;2023-04-25T00:37:21;2.1;;;1.2;;
26824;SDS011;14402;48.178;11.566;2023-04-25T00:37:51;2.1;;;1.2;;
26824;SDS011;14402;48.178;11.566;2023-04-25T00:38:21;2.1;;;1.2;;
26824;SDS011;14402;48.178;11.566;2023-04-25T00:38:52;2.2;;;1.4;;
26824;SDS011;14402;48.178;11.566;2023-04-25T00:39:21;2.4;;;1.5;;
26824;SDS011;14402;48.178;11.566;2023-04-25T00:39:51;2.4;;;1.5;;
26824;SDS011;14402;48.178;11.566;2023-04-25T00:40:21;2.4;;;1.5;;
26824;SDS011;14402;48.178;11.566;2023-04-25T00:40:51;3.0;;;1.4;;
26824;SDS011;14402;48.178;11.566;2023-04-25T00:41:22;3.6;;;1.2;;
26824;SDS011;14402;48.178;11.566;2023-04-25T00:41:52;3.6;;;1.2;;
26824;SDS011;14402;48.178;11.566;2023-04-25T00:42:22;3.6;;;1.2;;
26824;SDS011;14402;48.178;11.566;2023-04-25T00:42:52;2.7;;;1.2;;
26824;SDS011;14402;48.178;11.566;2023-04-25T00:43:22;1.7;;;1.1;;
26824;SDS011;14402;48.178;11.566;2023-04-25T00:43:52;1.7;;;1.1;;
26824;SDS011;14402;48.178;11.566;2023-04-25T00:44:22;1.7;;;1.1;;
26824;SDS011;14402;48.178;11.566;2023-04-25T00:44:52;1.8;;;1.2;;
26824;SDS011;14402;48.178;11.566;2023-04-25T00:45:22;1.9;;;1.3;;
26824;SDS011;14402;48.178;11.566;2023-04-25T00:45:52;1.9;;;1.3;;
26824;SDS011;14402;48.178;11.566;2023-04-25T00:46:22;1.9;;;1.3;;
26824;SDS011;14402;48.178;11.566;2023-04-25T00:46:52;2.0;;;1.2;;
26824;SDS011;14402;48.178;11.566;2023-04-25T00:47:22;2.0;;;1.1;;
26824;SDS011;14402;48.178;11.566;2023-04-25T00:47:52;2.0;;;1.1;;
26824;SDS011;14402;48.178;11.566;2023-04-25T00:48:22;2.0;;;1.1;;
26824;SDS011;14402;48.178;11.566;2023-04-25T00:48:52;2.3;;;1.2;;
26824;SDS011;14402;48.178;11.566;2023-04-25T00:49:22;2.6;;;1.4;;
26824;SDS011;14402;48.178;11.566;2023-04-25T00:49:52;2.6;;;1.4;;
26824;SDS011;14402;48.178;11.566;2023-04-25T00:50:23;2.6;;;1.4;;
26824;SDS011;14402;48.178;11.566;2023-04-25T00:50:53;2.4;;;1.4;;
26824;SDS011;14402;48.178;11.566;2023-04-25T00:51:23;2.2;;;1.4;;
26824;SDS011;14402;48.178;11.566;2023-04-25T00:51:53;2.2;;;1.4;;
26824;SDS011;14402;48.178;11.566;2023-04-25T00:52:23;2.2;;;1.4;;
26824;SDS011;14402;48.178;11.566;2023-04-25T00:52:53;2.0;;;1.2;;
26824;SDS011;14402;48.178;11.566;2023-04-25T00:53:24;1.9;;;1.1;;
26824;SDS011;14402;48.178;11.566;2023-04-25T00:53:53;1.9;;;1.1;;
26824;SDS011;14402;48.178;11.566;2023-04-25T00:54:23;1.9;;;1.1;;
26824;SDS011;14402;48.178;11.566;2023-04-25T00:54:53;1.8;;;1.0;;
26824;SDS011;14402;48.178;11.566;2023-04-25T00:55:23;1.8;;;1.0;;
26824;SDS011;14402;48.178;11.566;2023-04-25T00:55:54;1.8;;;1.0;;
26824;SDS011;14402;48.178;11.566;2023-04-25T00:56:23;1.8;;;1.0;;
26824;SDS011;14402;48.178;11.566;2023-04-25T00:56:53;2.0;;;1.1;;
26824;SDS011;14402;48.178;11.566;2023-04-25T00:57:23;2.2;;;1.2;;
26824;SDS011;14402;48.178;11.566;2023-04-25T00:57:53;2.2;;;1.2;;
26824;SDS011;14402;48.178;11.566;2023-04-25T00:58:24;2.2;;;1.2;;
26824;SDS011;14402;48.178;11.566;2023-04-25T00:58:53;2.5;;;1.2;;
26824;SDS011;14402;48.178;11.566;2023-04-25T00:59:24;2.8;;;1.3;;
26824;SDS011;14402;48.178;11.566;2023-04-25T00:59:54;2.8;;;1.3;;
26824;SDS011;14402;48.178;11.566;2023-04-25T01:00:24;2.8;;;1.3;;
26824;SDS011;14402;48.178;11.566;2023-04-25T01:00:54;2.4;;;1.2;;
26824;SDS011;14402;48.178;11.566;2023-04-25T01:01:24;2.0;;;1.2;;
26824;SDS011;14402;48.178;11.566;2023-04-25T01:01:54;2.0;;;1.2;;
26824;SDS011;14402;48.178;11.566;2023-04-25T01:02:24;2.0;;;1.2;;
26824;SDS011;14402;48.178;11.566;2023-04-25T01:02:54;2.0;;;1.2;;
26824;SDS011;14402;48.178;11.566;2023-04-25T01:03:24;1.9;;;1.2;;
26824;SDS011;14402;48.178;11.566;2023-04-25T01:03:54;1.9;;;1.2;;
26824;SDS011;14402;48.178;11.566;2023-04-25T01:04:25;1.9;;;1.2;;
26824;SDS011;14402;48.178;11.566;2023-04-25T01:04:54;2.3;;;1.4;;
26824;SDS011;14402;48.178;11.566;2023-04-25T01:05:24;2.7;;;1.5;;
26824;SDS011;14402;48.178;11.566;2023-04-25T01:05:54;2.7;;;1.5;;
26824;SDS011;14402;48.178;11.566;2023-04-25T01:06:24;2.7;;;1.5;;
26824;SDS011;14402;48.178;11.566;2023-04-25T01:06:54;2.5;;;1.4;;
26824;SDS011;14402;48.178;11.566;2023-04-25T01:07:25;2.3;;;1.2;;
26824;SDS011;14402;48.178;11.566;2023-04-25T01:07:55;2.3;;;1.2;;
26824;SDS011;14402;48.178;11.566;2023-04-25T01:08:25;2.3;;;1.2;;
26824;SDS011;14402;48.178;11.566;2023-04-25T01:08:55;2.3;;;1.2;;
26824;SDS011;14402;48.178;11.566;2023-04-25T01:09:25;2.3;;;1.3;;
26824;SDS011;14402;48.178;11.566;2023-04-25T01:09:55;2.3;;;1.3;;
26824;SDS011;14402;48.178;11.566;2023-04-25T01:10:25;2.3;;;1.3;;
26824;SDS011;14402;48.178;11.566;2023-04-25T01:10:55;2.2;;;1.2;;
26824;SDS011;14402;48.178;11.566;2023-04-25T01:11:25;2.0;;;1.2;;
26824;SDS011;14402;48.178;11.566;2023-04-25T01:11:55;2.0;;;1.2;;
26824;SDS011;14402;48.178;11.566;2023-04-25T01:12:25;2.0;;;1.2;;
26824;SDS011;14402;48.178;11.566;2023-04-25T01:12:55;2.0;;;1.2;;
26824;SDS011;14402;48.178;11.566;2023-04-25T01:13:25;2.0;;;1.3;;
26824;SDS011;14402;48.178;11.566;2023-04-25T01:13:55;2.0;;;1.3;;
26824;SDS011;14402;48.178;11.566;2023-04-25T01:14:25;2.0;;;1.3;;
26824;SDS011;14402;48.178;11.566;2023-04-25T01:14:55;1.7;;;1.3;;
26824;SDS011;14402;48.178;11.566;2023-04-25T01:15:25;1.4;;;1.3;;
26824;SDS011;14402;48.178;11.566;2023-04-25T01:15:55;1.4;;;1.3;;
26824;SDS011;14402;48.178;11.566;2023-04-25T01:16:25;1.4;;;1.3;;
26824;SDS011;14402;48.178;11.566;2023-04-25T01:16:56;2.2;;;1.3;;
26824;SDS011;14402;48.178;11.566;2023-04-25T01:17:27;3.1;;;1.4;;
26824;SDS011;14402;48.178;11.566;2023-04-25T01:17:56;3.1;;;1.4;;
26824;SDS011;14402;48.178;11.566;2023-04-25T01:18:26;3.1;;;1.4;;
26824;SDS011;14402;48.178;11.566;2023-04-25T01:18:56;2.2;;;1.3;;
26824;SDS011;14402;48.178;11.566;2023-04-25T01:19:26;1.3;;;1.2;;
26824;SDS011;14402;48.178;11.566;2023-04-25T01:19:56;1.3;;;1.2;;
26824;SDS011;14402;48.178;11.566;2023-04-25T01:20:26;1.3;;;1.2;;
26824;SDS011;14402;48.178;11.566;2023-04-25T01:20:56;1.6;;;1.3;;
26824;SDS011;14402;48.178;11.566;2023-04-25T01:21:26;2.0;;;1.4;;
26824;SDS011;14402;48.178;11.566;2023-04-25T01:21:56;2.0;;;1.4;;
26824;SDS011;14402;48.178;11.566;2023-04-25T01:22:26;2.0;;;1.4;;
26824;SDS011;14402;48.178;11.566;2023-04-25T01:22:56;2.0;;;1.3;;
26824;SDS011;14402;48.178;11.566;2023-04-25T01:23:26;2.1;;;1.2;;
26824;SDS011;14402;48.178;11.566;2023-04-25T01:23:56;2.1;;;1.2;;
26824;SDS011;14402;48.178;11.566;2023-04-25T01:24:26;2.1;;;1.2;;
26824;SDS011;14402;48.178;11.566;2023-04-25T01:24:56;2.2;;;1.2;;
26824;SDS011;14402;48.178;11.566;2023-04-25T01:25:26;2.2;;;1.2;;
26824;SDS011;14402;48.178;11.566;2023-04-25T01:25:56;2.2;;;1.2;;
26824;SDS011;14402;48.178;11.566;2023-04-25T01:26:26;2.2;;;1.2;;
26824;SDS011;14402;48.178;11.566;2023-04-25T01:26:57;2.4;;;1.2;;
26824;SDS011;14402;48.178;11.566;2023-04-25T01:27:27;2.6;;;1.2;;
26824;SDS011;14402;48.178;11.566;2023-04-25T01:27:57;2.6;;;1.2;;
26824;SDS011;14402;48.178;11.566;2023-04-25T01:28:27;2.6;;;1.2;;
26824;SDS011;14402;48.178;11.566;2023-04-25T01:28:57;2.3;;;1.2;;
26824;SDS011;14402;48.178;11.566;2023-04-25T01:29:27;2.1;;;1.2;;
26824;SDS011;14402;48.178;11.566;2023-04-25T01:29:57;2.1;;;1.2;;
26824;SDS011;14402;48.178;11.566;2023-04-25T01:30:27;2.1;;;1.2;;
26824;SDS011;14402;48.178;11.566;2023-04-25T01:30:57;1.9;;;1.2;;
26824;SDS011;14402;48.178;11.566;2023-04-25T01:31:27;1.8;;;1.2;;
26824;SDS011;14402;48.178;11.566;2023-04-25T01:31:57;1.8;;;1.2;;
26824;SDS011;14402;48.178;11.566;2023-04-25T01:32:27;1.8;;;1.2;;
26824;SDS011;14402;48.178;11.566;2023-04-25T01:32:57;2.4;;;1.3;;
26824;SDS011;14402;48.178;11.566;2023-04-25T01:33:27;3.0;;;1.4;;
26824;SDS011;14402;48.178;11.566;2023-04-25T01:33:57;3.0;;;1.4;;
26824;SDS011;14402;48.178;11.566;2023-04-25T01:34:27;3.0;;;1.4;;
26824;SDS011;14402;48.178;11.566;2023-04-25T01:34:57;2.7;;;1.4;;
26824;SDS011;14402;48.178;11.566;2023-04-25T01:35:27;2.4;;;1.4;;
26824;SDS011;14402;48.178;11.566;2023-04-25T01:35:57;2.4;;;1.4;;
26824;SDS011;14402;48.178;11.566;2023-04-25T01:36:28;2.4;;;1.4;;
26824;SDS011;14402;48.178;11.566;2023-04-25T01:36:58;2.8;;;1.3;;
26824;SDS011;14402;48.178;11.566;2023-04-25T01:37:28;3.3;;;1.3;;
26824;SDS011;14402;48.178;11.566;2023-04-25T01:37:58;3.3;;;1.3;;
26824;SDS011;14402;48.178;11.566;2023-04-25T01:38:28;3.3;;;1.3;;
26824;SDS011;14402;48.178;11.566;2023-04-25T01:38:58;2.7;;;1.3;;
26824;SDS011;14402;48.178;11.566;2023-04-25T01:39:28;2.0;;;1.3;;
26824;SDS011;14402;48.178;11.566;2023-04-25T01:39:58;2.0;;;1.3;;
26824;SDS011;14402;48.178;11.566;2023-04-25T01:40:28;2.0;;;1.3;;
26824;SDS011;14402;48.178;11.566;2023-04-25T01:40:58;2.0;;;1.2;;
26824;SDS011;14402;48.178;11.566;2023-04-25T01:41:28;2.0;;;1.2;;
26824;SDS011;14402;48.178;11.566;2023-04-25T01:41:58;2.0;;;1.2;;
26824;SDS011;14402;48.178;11.566;2023-04-25T01:42:28;2.0;;;1.2;;
26824;SDS011;14402;48.178;11.566;2023-04-25T01:42:58;1.6;;;1.2;;
26824;SDS011;14402;48.178;11.566;2023-04-25T01:43:28;1.2;;;1.1;;
26824;SDS011;14402;48.178;11.566;2023-04-25T01:43:58;1.2;;;1.1;;
26824;SDS011;14402;48.178;11.566;2023-04-25T01:44:28;1.2;;;1.1;;
26824;SDS011;14402;48.178;11.566;2023-04-25T01:44:58;1.8;;;1.2;;
26824;SDS011;14402;48.178;11.566;2023-04-25T01:45:29;2.4;;;1.2;;
26824;SDS011;14402;48.178;11.566;2023-04-25T01:45:58;2.4;;;1.2;;
26824;SDS011;14402;48.178;11.566;2023-04-25T01:46:29;2.4;;;1.2;;
26824;SDS011;14402;48.178;11.566;2023-04-25T01:46:59;2.0;;;1.2;;
26824;SDS011;14402;48.178;11.566;2023-04-25T01:47:29;1.6;;;1.1;;
26824;SDS011;14402;48.178;11.566;2023-04-25T01:47:59;1.6;;;1.1;;
26824;SDS011;14402;48.178;11.566;2023-04-25T01:48:29;1.6;;;1.1;;
26824;SDS011;14402;48.178;11.566;2023-04-25T01:48:59;1.8;;;1.2;;
26824;SDS011;14402;48.178;11.566;2023-04-25T01:49:29;2.1;;;1.3;;
26824;SDS011;14402;48.178;11.566;2023-04-25T01:49:59;2.1;;;1.3;;
26824;SDS011;14402;48.178;11.566;2023-04-25T01:50:29;2.1;;;1.3;;
26824;SDS011;14402;48.178;11.566;2023-04-25T01:50:59;2.2;;;1.3;;
26824;SDS011;14402;48.178;11.566;2023-04-25T01:51:29;2.4;;;1.3;;
26824;SDS011;14402;48.178;11.566;2023-04-25T01:51:59;2.4;;;1.3;;
26824;SDS011;14402;48.178;11.566;2023-04-25T01:52:29;2.4;;;1.3;;
26824;SDS011;14402;48.178;11.566;2023-04-25T01:52:59;2.1;;;1.2;;
26824;SDS011;14402;48.178;11.566;2023-04-25T01:53:29;1.8;;;1.2;;
26824;SDS011;14402;48.178;11.566;2023-04-25T01:54:00;1.8;;;1.2;;
26824;SDS011;14402;48.178;11.566;2023-04-25T01:54:30;1.8;;;1.2;;
26824;SDS011;14402;48.178;11.566;2023-04-25T01:55:00;1.9;;;1.2;;
26824;SDS011;14402;48.178;11.566;2023-04-25T01:55:30;2.1;;;1.3;;
26824;SDS011;14402;48.178;11.566;2023-04-25T01:56:00;2.1;;;1.3;;
26824;SDS011;14402;48.178;11.566;2023-04-25T01:56:30;2.1;;;1.3;;
26824;SDS011;14402;48.178;11.566;2023-04-25T01:57:00;2.2;;;1.3;;
26824;SDS011;14402;48.178;11.566;2023-04-25T01:57:30;2.2;;;1.3;;
26824;SDS011;14402;48.178;11.566;2023-04-25T01:58:00;2.2;;;1.3;;
26824;SDS011;14402;48.178;11.566;2023-04-25T01:58:30;2.2;;;1.3;;
26824;SDS011;14402;48.178;11.566;2023-04-25T01:59:00;2.0;;;1.2;;
26824;SDS011;14402;48.178;11.566;2023-04-25T01:59:30;1.8;;;1.2;;
26824;SDS011;14402;48.178;11.566;2023-04-25T02:00:01;1.8;;;1.2;;
26824;SDS011;14402;48.178;11.566;2023-04-25T02:00:30;1.8;;;1.2;;
26824;SDS011;14402;48.178;11.566;2023-04-25T02:01:00;2.4;;;1.3;;
26824;SDS011;14402;48.178;11.566;2023-04-25T02:01:30;3.1;;;1.4;;
26824;SDS011;14402;48.178;11.566;2023-04-25T02:02:00;3.1;;;1.4;;
26824;SDS011;14402;48.178;11.566;2023-04-25T02:02:30;3.1;;;1.4;;
26824;SDS011;14402;48.178;11.566;2023-04-25T02:03:00;2.5;;;1.2;;
26824;SDS011;14402;48.178;11.566;2023-04-25T02:03:31;1.9;;;1.1;;
26824;SDS011;14402;48.178;11.566;2023-04-25T02:04:01;1.9;;;1.1;;
26824;SDS011;14402;48.178;11.566;2023-04-25T02:04:31;1.9;;;1.1;;
26824;SDS011;14402;48.178;11.566;2023-04-25T02:05:01;2.2;;;1.2;;
26824;SDS011;14402;48.178;11.566;2023-04-25T02:05:33;2.6;;;1.3;;
26824;SDS011;14402;48.178;11.566;2023-04-25T02:06:01;2.6;;;1.3;;
26824;SDS011;14402;48.178;11.566;2023-04-25T02:06:31;2.6;;;1.3;;
26824;SDS011;14402;48.178;11.566;2023-04-25T02:07:01;2.2;;;1.3;;
26824;SDS011;14402;48.178;11.566;2023-04-25T02:07:31;1.9;;;1.3;;
26824;SDS011;14402;48.178;11.566;2023-04-25T02:08:01;1.9;;;1.3;;
26824;SDS011;14402;48.178;11.566;2023-04-25T02:08:31;1.9;;;1.3;;
26824;SDS011;14402;48.178;11.566;2023-04-25T02:09:01;3.6;;;1.3;;
26824;SDS011;14402;48.178;11.566;2023-04-25T02:09:31;5.3;;;1.3;;
26824;SDS011;14402;48.178;11.566;2023-04-25T02:10:01;5.3;;;1.3;;
26824;SDS011;14402;48.178;11.566;2023-04-25T02:10:31;5.3;;;1.3;;
26824;SDS011;14402;48.178;11.566;2023-04-25T02:11:01;4.6;;;1.5;;
26824;SDS011;14402;48.178;11.566;2023-04-25T02:11:31;3.8;;;1.6;;
26824;SDS011;14402;48.178;11.566;2023-04-25T02:12:02;3.8;;;1.6;;
26824;SDS011;14402;48.178;11.566;2023-04-25T02:12:32;3.8;;;1.6;;
26824;SDS011;14402;48.178;11.566;2023-04-25T02:13:02;3.4;;;1.5;;
26824;SDS011;14402;48.178;11.566;2023-04-25T02:13:32;3.0;;;1.5;;
26824;SDS011;14402;48.178;11.566;2023-04-25T02:14:02;3.0;;;1.5;;
26824;SDS011;14402;48.178;11.566;2023-04-25T02:14:32;3.0;;;1.5;;
26824;SDS011;14402;48.178;11.566;2023-04-25T02:15:02;2.5;;;1.5;;
26824;SDS011;14402;48.178;11.566;2023-04-25T02:15:32;2.0;;;1.4;;
26824;SDS011;14402;48.178;11.566;2023-04-25T02:16:02;2.0;;;1.4;;
26824;SDS011;14402;48.178;11.566;2023-04-25T02:16:32;2.0;;;1.4;;
26824;SDS011;14402;48.178;11.566;2023-04-25T02:17:02;2.0;;;1.3;;
26824;SDS011;14402;48.178;11.566;2023-04-25T02:17:33;1.9;;;1.2;;
26824;SDS011;14402;48.178;11.566;2023-04-25T02:18:02;1.9;;;1.2;;
26824;SDS011;14402;48.178;11.566;2023-04-25T02:18:32;1.9;;;1.2;;
26824;SDS011;14402;48.178;11.566;2023-04-25T02:19:02;1.9;;;1.2;;
26824;SDS011;14402;48.178;11.566;2023-04-25T02:19:32;1.9;;;1.3;;
26824;SDS011;14402;48.178;11.566;2023-04-25T02:20:03;1.9;;;1.3;;
26824;SDS011;14402;48.178;11.566;2023-04-25T02:20:33;1.9;;;1.3;;
26824;SDS011;14402;48.178;11.566;2023-04-25T02:21:02;2.0;;;1.3;;
26824;SDS011;14402;48.178;11.566;2023-04-25T02:21:33;2.2;;;1.3;;
26824;SDS011;14402;48.178;11.566;2023-04-25T02:22:03;2.2;;;1.3;;
26824;SDS011;14402;48.178;11.566;2023-04-25T02:22:33;2.2;;;1.3;;
26824;SDS011;14402;48.178;11.566;2023-04-25T02:23:03;2.1;;;1.3;;
26824;SDS011;14402;48.178;11.566;2023-04-25T02:23:33;2.0;;;1.3;;
26824;SDS011;14402;48.178;11.566;2023-04-25T02:24:03;2.0;;;1.3;;
26824;SDS011;14402;48.178;11.566;2023-04-25T02:24:33;2.0;;;1.3;;
26824;SDS011;14402;48.178;11.566;2023-04-25T02:25:03;2.0;;;1.2;;
26824;SDS011;14402;48.178;11.566;2023-04-25T02:25:33;2.0;;;1.2;;
26824;SDS011;14402;48.178;11.566;2023-04-25T02:26:03;2.0;;;1.2;;
26824;SDS011;14402;48.178;11.566;2023-04-25T02:26:33;2.0;;;1.2;;
26824;SDS011;14402;48.178;11.566;2023-04-25T02:27:03;1.8;;;1.2;;
26824;SDS011;14402;48.178;11.566;2023-04-25T02:27:33;1.6;;;1.3;;
26824;SDS011;14402;48.178;11.566;2023-04-25T02:28:03;1.6;;;1.3;;
26824;SDS011;14402;48.178;11.566;2023-04-25T02:28:33;1.6;;;1.3;;
26824;SDS011;14402;48.178;11.566;2023-04-25T02:29:03;2.2;;;1.2;;
26824;SDS011;14402;48.178;11.566;2023-04-25T02:29:33;2.9;;;1.2;;
26824;SDS011;14402;48.178;11.566;2023-04-25T02:30:04;2.9;;;1.2;;
26824;SDS011;14402;48.178;11.566;2023-04-25T02:30:34;2.9;;;1.2;;
26824;SDS011;14402;48.178;11.566;2023-04-25T02:31:04;3.1;;;1.4;;
26824;SDS011;14402;48.178;11.566;2023-04-25T02:31:34;3.3;;;1.6;;
26824;SDS011;14402;48.178;11.566;2023-04-25T02:32:04;3.3;;;1.6;;
26824;SDS011;14402;48.178;11.566;2023-04-25T02:32:34;3.3;;;1.6;;
26824;SDS011;14402;48.178;11.566;2023-04-25T02:33:04;2.8;;;1.5;;
26824;SDS011;14402;48.178;11.566;2023-04-25T02:33:34;2.3;;;1.3;;
26824;SDS011;14402;48.178;11.566;2023-04-25T02:34:04;2.3;;;1.3;;
26824;SDS011;14402;48.178;11.566;2023-04-25T02:34:34;2.3;;;1.3;;
26824;SDS011;14402;48.178;11.566;2023-04-25T02:35:04;2.0;;;1.3;;
26824;SDS011;14402;48.178;11.566;2023-04-25T02:35:34;1.8;;;1.4;;
26824;SDS011;14402;48.178;11.566;2023-04-25T02:36:04;1.8;;;1.4;;
26824;SDS011;14402;48.178;11.566;2023-04-25T02:36:34;1.8;;;1.4;;
26824;SDS011;14402;48.178;11.566;2023-04-25T02:37:04;3.6;;;1.4;;
26824;SDS011;14402;48.178;11.566;2023-04-25T02:37:35;5.4;;;1.4;;
26824;SDS011;14402;48.178;11.566;2023-04-25T02:38:04;5.4;;;1.4;;
26824;SDS011;14402;48.178;11.566;2023-04-25T02:38:34;5.4;;;1.4;;
26824;SDS011;14402;48.178;11.566;2023-04-25T02:39:05;4.0;;;1.3;;
26824;SDS011;14402;48.178;11.566;2023-04-25T02:39:35;2.6;;;1.3;;
26824;SDS011;14402;48.178;11.566;2023-04-25T02:40:05;2.6;;;1.3;;
26824;SDS011;14402;48.178;11.566;2023-04-25T02:40:35;2.6;;;1.3;;
26824;SDS011;14402;48.178;11.566;2023-04-25T02:41:05;2.8;;;1.3;;
26824;SDS011;14402;48.178;11.566;2023-04-25T02:41:35;3.1;;;1.3;;
26824;SDS011;14402;48.178;11.566;2023-04-25T02:42:05;3.1;;;1.3;;
26824;SDS011;14402;48.178;11.566;2023-04-25T02:42:35;3.1;;;1.3;;
26824;SDS011;14402;48.178;11.566;2023-04-25T02:43:05;2.8;;;1.3;;
26824;SDS011;14402;48.178;11.566;2023-04-25T02:43:35;2.6;;;1.4;;
26824;SDS011;14402;48.178;11.566;2023-04-25T02:44:05;2.6;;;1.4;;
26824;SDS011;14402;48.178;11.566;2023-04-25T02:44:35;2.6;;;1.4;;
26824;SDS011;14402;48.178;11.566;2023-04-25T02:45:05;2.7;;;1.4;;
26824;SDS011;14402;48.178;11.566;2023-04-25T02:45:35;2.8;;;1.4;;
26824;SDS011;14402;48.178;11.566;2023-04-25T02:46:05;2.8;;;1.4;;
26824;SDS011;14402;48.178;11.566;2023-04-25T02:46:35;2.8;;;1.4;;
26824;SDS011;14402;48.178;11.566;2023-04-25T02:47:05;2.5;;;1.3;;
26824;SDS011;14402;48.178;11.566;2023-04-25T02:47:36;2.2;;;1.3;;
26824;SDS011;14402;48.178;11.566;2023-04-25T02:48:06;2.2;;;1.3;;
26824;SDS011;14402;48.178;11.566;2023-04-25T02:48:36;2.2;;;1.3;;
26824;SDS011;14402;48.178;11.566;2023-04-25T02:49:06;2.6;;;1.3;;
26824;SDS011;14402;48.178;11.566;2023-04-25T02:49:36;3.0;;;1.4;;
26824;SDS011;14402;48.178;11.566;2023-04-25T02:50:06;3.0;;;1.4;;
26824;SDS011;14402;48.178;11.566;2023-04-25T02:50:36;3.0;;;1.4;;
26824;SDS011;14402;48.178;11.566;2023-04-25T02:51:06;3.2;;;1.3;;
26824;SDS011;14402;48.178;11.566;2023-04-25T02:51:36;3.3;;;1.3;;
26824;SDS011;14402;48.178;11.566;2023-04-25T02:52:06;3.3;;;1.3;;
26824;SDS011;14402;48.178;11.566;2023-04-25T02:52:36;3.3;;;1.3;;
26824;SDS011;14402;48.178;11.566;2023-04-25T02:53:06;3.3;;;1.4;;
26824;SDS011;14402;48.178;11.566;2023-04-25T02:53:36;3.3;;;1.5;;
26824;SDS011;14402;48.178;11.566;2023-04-25T02:54:06;3.3;;;1.5;;
26824;SDS011;14402;48.178;11.566;2023-04-25T02:54:36;3.3;;;1.5;;
26824;SDS011;14402;48.178;11.566;2023-04-25T02:55:06;3.0;;;1.5;;
26824;SDS011;14402;48.178;11.566;2023-04-25T02:55:36;2.7;;;1.5;;
26824;SDS011;14402;48.178;11.566;2023-04-25T02:56:06;2.7;;;1.5;;
26824;SDS011;14402;48.178;11.566;2023-04-25T02:56:36;2.7;;;1.5;;
26824;SDS011;14402;48.178;11.566;2023-04-25T02:57:07;2.3;;;1.4;;
26824;SDS011;14402;48.178;11.566;2023-04-25T02:57:37;2.0;;;1.3;;
26824;SDS011;14402;48.178;11.566;2023-04-25T02:58:07;2.0;;;1.3;;
26824;SDS011;14402;48.178;11.566;2023-04-25T02:58:37;2.0;;;1.3;;
26824;SDS011;14402;48.178;11.566;2023-04-25T02:59:07;2.2;;;1.5;;
26824;SDS011;14402;48.178;11.566;2023-04-25T02:59:37;2.3;;;1.7;;
26824;SDS011;14402;48.178;11.566;2023-04-25T03:00:07;2.3;;;1.7;;
26824;SDS011;14402;48.178;11.566;2023-04-25T03:00:37;2.3;;;1.7;;
26824;SDS011;14402;48.178;11.566;2023-04-25T03:01:07;2.3;;;1.5;;
26824;SDS011;14402;48.178;11.566;2023-04-25T03:01:37;2.3;;;1.4;;
26824;SDS011;14402;48.178;11.566;2023-04-25T03:02:07;2.3;;;1.4;;
26824;SDS011;14402;48.178;11.566;2023-04-25T03:02:37;2.3;;;1.4;;
26824;SDS011;14402;48.178;11.566;2023-04-25T03:03:07;2.2;;;1.2;;
26824;SDS011;14402;48.178;11.566;2023-04-25T03:03:37;2.0;;;1.1;;